• Join FlightAware (Why Join?)
  • Login
  • US Flag 
04:46PM EDT


 

Airport Tracker/Info


-or-


 

Live Flight TrackerFlight Track Log ✈ AWE3794 ✈ 11-Apr-2013 ✈ KCLE - KPHL

Flight Track Log - Related Links

Times and Time Zones

All times are in EDT time to prevent confusion due to time zone crossing. See the AWE3794 flight status page for this flight to view local times or setup timezone preferences in your user account.

Time Position Orientation Groundspeed Altitude Reporting Facility
EDT Latitude Longitude Course Direction KTS MPH feet Rate Location/Type
10:07AM 41.4286 -81.7711 77° East 237 273 3,000  Level Cleveland Center
10:08AM 41.2244 -81.4654 124° Southeast  Level FlightAware Approximate
10:09AM 41.1619 -81.3403 124° Southeast  Level FlightAware Approximate
10:09AM 41.3572 -81.5900 118° Southeast 307 353 7,300  Level Cleveland Center
10:10AM 41.1045 -81.2113 118° Southeast  Level FlightAware Approximate
10:10AM 41.3017 -81.5064 131° Southeast 266 306 10,100  Level Cleveland Center
10:11AM 41.0582 -81.0746 114° Southeast  Level FlightAware Approximate
10:11AM 41.2586 -81.4089 120° Southeast 289 333 12,000  Level Cleveland Center
10:12AM 41.2178 -81.2953 116° Southeast 313 360 13,400 1,560 Climbing Cleveland Center
10:13AM 41.1789 -81.1789 114° Southeast 331 381 15,200 1,680 Climbing Cleveland Center
10:14AM 41.1356 -81.0572 115° Southeast 350 403 16,800 1,620 Climbing Cleveland Center
10:15AM 41.0903 -80.9331 116° Southeast 361 415 18,500 1,320 Climbing Cleveland Center
10:16AM 41.0447 -80.8089 116° Southeast 366 421 19,500 1,080 Climbing Cleveland Center
10:17AM 40.9989 -80.6767 115° Southeast 372 428 20,700 1,080 Climbing Cleveland Center
10:18AM 40.9489 -80.5447 117° Southeast 384 442 21,700 900 Climbing Cleveland Center
10:19AM 40.9008 -80.4128 116° Southeast 390 449 22,600 840 Climbing Cleveland Center
10:20AM 40.8422 -80.2619 117° Southeast 402 463 23,400 720 Climbing Cleveland Center
10:21AM 40.7897 -80.1225 116° Southeast 409 471 24,100 660 Climbing Cleveland Center
10:22AM 40.7472 -79.9911 113° Southeast 426 490 24,800 420 Climbing Cleveland Center
10:23AM 40.6944 -79.8519 117° Southeast 426 490 25,000 60 Climbing Cleveland Center
10:24AM 40.6433 -79.7075 115° Southeast 421 484 25,000  Level Cleveland Center
10:25AM 40.5881 -79.5606 116° Southeast 415 478 25,000  Level Cleveland Center
10:26AM 40.5678 -79.4189 101° East 409 471 25,000  Level Cleveland Center
10:27AM 40.5514 -79.2606 98° East 415 478 25,000  Level Cleveland Center
10:28AM 40.5350 -79.1133 98° East 435 501 25,000  Level Cleveland Center
10:29AM 40.5183 -78.9497 98° East 447 514 25,000  Level Cleveland Center
10:30AM 40.5011 -78.7836 98° East 452 520 25,000  Level Cleveland Center
10:31AM 40.4819 -78.6203 99° East 452 520 25,000  Level Cleveland Center
10:32AM 40.4642 -78.4572 98° East 452 520 25,000  Level Cleveland Center
10:32AM 40.4536 -78.3544 98° East 448 516 25,000  Level New York Center
10:33AM 40.4350 -78.1886 98° East 453 521 25,000  Level New York Center
10:34AM 40.4161 -78.0203 98° East 453 521 25,000  Level New York Center
10:35AM 40.3972 -77.8519 98° East 458 527 25,000  Level New York Center
10:36AM 40.3761 -77.6808 99° East 469 540 25,000 -60 Level New York Center
10:37AM 40.3547 -77.5097 99° East 469 540 24,900 -840 Descending New York Center
10:38AM 40.3386 -77.3528 98° East 474 545 23,400 -1,500 Descending New York Center
10:39AM 40.3161 -77.1900 100° East 469 540 21,900 -1,500 Descending New York Center
10:40AM 40.2914 -77.0300 101° East 450 518 20,400 -1,440 Descending New York Center
10:41AM 40.2542 -76.8633 106° East 439 505 19,000 -1,500 Descending New York Center
10:42AM 40.2200 -76.7189 107° East 428 493 17,500 -1,500 Descending New York Center
10:43AM 40.1911 -76.5886 106° East 414 476 16,100 -1,440 Descending New York Center
10:44AM 40.1564 -76.4444 107° East 414 476 14,600 -1,620 Descending New York Center
10:45AM 40.1381 -76.3664 107° East 406 467 13,800 -1,680 Descending FAA TRACON SMA TRACON (SMA)
10:45AM 40.1272 -76.3142 105° East 403 464 13,300 -1,500 Descending FAA TRACON SMA TRACON (SMA)
10:45AM 40.1197 -76.2719 103° East 401 461 12,800 -1,500 Descending FAA TRACON SMA TRACON (SMA)
10:46AM 40.1158 -76.2256 96° East 409 471 12,300 -1,680 Descending FAA TRACON SMA TRACON (SMA)
10:46AM 40.1133 -76.1722 93° East 391 450 11,700 -1,500 Descending FAA TRACON SMA TRACON (SMA)
10:46AM 40.1081 -76.1325 100° East 376 433 11,300 -1,200 Descending FAA TRACON SMA TRACON (SMA)
10:47AM 40.1067 -76.0894 92° East 352 405 10,900 -1,200 Descending FAA TRACON SMA TRACON (SMA)
10:47AM 40.1047 -76.0517 94° East 345 397 10,500 -1,380 Descending FAA TRACON SMA TRACON (SMA)
10:47AM 40.1017 -76.0044 95° East 333 383 10,000 -1,380 Descending FAA TRACON SMA TRACON (SMA)
10:48AM 40.0986 -75.9694 96° East 327 376 9,600 -1,200 Descending FAA TRACON SMA TRACON (SMA)
10:48AM 40.0953 -75.9333 97° East 323 372 9,200 -1,380 Descending FAA TRACON SMA TRACON (SMA)
10:48AM 40.0925 -75.8894 95° East 323 372 8,700 -1,260 Descending FAA TRACON SMA TRACON (SMA)
10:49AM 40.0906 -75.8533 94° East 323 372 8,400 -1,080 Descending FAA TRACON SMA TRACON (SMA)
10:49AM 40.0875 -75.8053 95° East 321 369 8,000 -600 Descending FAA TRACON SMA TRACON (SMA)
10:49AM 40.0839 -75.7756 99° East 318 366 8,000  Level FAA TRACON SMA TRACON (SMA)
10:50AM 40.0819 -75.7378 94° East 320 368 8,000 -480 Level FAA TRACON SMA TRACON (SMA)
10:50AM 40.0797 -75.7017 95° East 322 371 7,700 -1,380 Descending FAA TRACON SMA TRACON (SMA)
10:50AM 40.0786 -75.6603 92° East 320 368 7,100 -1,500 Descending FAA TRACON SMA TRACON (SMA)
10:51AM 40.0767 -75.6250 94° East 316 364 6,700 -1,320 Descending FAA TRACON SMA TRACON (SMA)
10:51AM 40.0744 -75.5894 95° East 312 359 6,200 -1,080 Descending FAA TRACON SMA TRACON (SMA)
10:51AM 40.0739 -75.5483 91° East 305 351 6,000 -360 Descending FAA TRACON SMA TRACON (SMA)
10:52AM 40.0714 -75.5122 95° East 304 350 6,000  Level FAA TRACON SMA TRACON (SMA)
10:52AM 40.0700 -75.4783 93° East 303 349 6,000  Level FAA TRACON SMA TRACON (SMA)
10:52AM 40.0678 -75.4356 94° East 305 351 6,000  Level FAA TRACON SMA TRACON (SMA)
10:53AM 40.0667 -75.4017 92° East 305 351 6,000  Level FAA TRACON SMA TRACON (SMA)
10:53AM 40.0642 -75.3594 94° East 307 353 6,000  Level FAA TRACON SMA TRACON (SMA)
10:53AM 40.0631 -75.3261 92° East 304 350 6,000  Level FAA TRACON SMA TRACON (SMA)
10:54AM 40.0608 -75.2906 95° East 302 348 6,000  Level FAA TRACON SMA TRACON (SMA)
10:54AM 40.0589 -75.2569 94° East 302 348 6,000  Level FAA TRACON SMA TRACON (SMA)
10:54AM 40.0503 -75.2244 109° East 277 319 6,000  Level FAA TRACON SMA TRACON (SMA)
10:55AM 40.0353 -75.1994 128° Southeast 238 274 6,000 120 Level FAA TRACON SMA TRACON (SMA)
10:55AM 40.0272 -75.1733 112° Southeast 262 302 6,100  Climbing FAA TRACON SMA TRACON (SMA)
10:55AM 40.0242 -75.1403 97° East 266 306 6,000 -180 Descending FAA TRACON SMA TRACON (SMA)
10:56AM 40.0203 -75.1083 99° East 263 303 6,000  Level FAA TRACON SMA TRACON (SMA)
10:56AM 40.0178 -75.0792 96° East 258 297 6,000 -180 Level FAA TRACON SMA TRACON (SMA)
10:56AM 40.0122 -75.0453 102° East 252 290 5,900 -1,200 Descending FAA TRACON SMA TRACON (SMA)
10:57AM 40.0056 -75.0164 107° East 252 290 5,200 -1,740 Descending FAA TRACON SMA TRACON (SMA)
10:57AM 39.9994 -74.9911 108° East 258 297 4,700 -1,800 Descending FAA TRACON SMA TRACON (SMA)
10:57AM 39.9853 -74.9617 122° Southeast 233 268 4,000 -2,040 Descending FAA TRACON SMA TRACON (SMA)
10:58AM 39.9667 -74.9578 171° South 211 243 3,400 -1,680 Descending FAA TRACON SMA TRACON (SMA)
10:58AM 39.9511 -74.9697 210° Southwest 216 249 2,900 -1,860 Descending FAA TRACON SMA TRACON (SMA)
10:58AM 39.9342 -74.9914 224° Southwest 214 246 2,200 -1,200 Descending FAA TRACON SMA TRACON (SMA)
10:59AM 39.9269 -75.0133 247° West 214 246 2,100 -300 Descending FAA TRACON SMA TRACON (SMA)